createdAt,value
2018-02-11T00:00:52.380Z,99.99
2018-02-11T00:01:51.945Z,99.99
2018-02-11T00:02:52.451Z,99.99
2018-02-11T00:03:51.394Z,99.99
2018-02-11T00:04:51.518Z,99.99
2018-02-11T00:05:51.826Z,99.99
2018-02-11T00:06:51.850Z,99.99
2018-02-11T00:07:51.894Z,99.99
2018-02-11T00:08:51.990Z,99.99
2018-02-11T00:09:52.061Z,99.99
2018-02-11T00:10:52.474Z,99.99
2018-02-11T00:11:52.500Z,99.99
2018-02-11T00:12:52.550Z,99.99
2018-02-11T00:13:52.709Z,99.99
2018-02-11T00:14:52.864Z,99.99
2018-02-11T00:15:52.885Z,99.99
2018-02-11T00:16:53.031Z,99.99
2018-02-11T00:17:52.971Z,99.99
2018-02-11T00:18:53.226Z,99.99
2018-02-11T00:19:53.421Z,99.99
2018-02-11T00:20:53.414Z,99.99
2018-02-11T00:21:53.873Z,99.99
2018-02-11T00:22:53.877Z,99.99
2018-02-11T00:23:53.920Z,99.99
2018-02-11T00:24:53.931Z,99.99
2018-02-11T00:25:53.951Z,99.99
2018-02-11T00:26:54.191Z,99.99
2018-02-11T00:27:54.183Z,99.99
2018-02-11T00:28:54.111Z,99.99
2018-02-11T00:29:54.540Z,99.99
2018-02-11T00:30:54.277Z,99.99
2018-02-11T00:31:54.583Z,99.99
2018-02-11T00:32:54.687Z,99.99
2018-02-11T00:33:54.793Z,99.99
2018-02-11T00:34:55.370Z,99.99
2018-02-11T00:35:55.701Z,99.99
2018-02-11T00:36:55.397Z,99.99
2018-02-11T00:37:55.242Z,99.99
2018-02-11T00:38:55.667Z,99.99
2018-02-11T00:39:55.616Z,99.99
2018-02-11T00:40:55.682Z,99.99
2018-02-11T00:41:55.427Z,99.99
2018-02-11T00:42:55.436Z,99.99
2018-02-11T00:43:55.981Z,99.99
2018-02-11T00:44:55.765Z,99.99
2018-02-11T00:45:56.309Z,99.99
2018-02-11T00:46:56.158Z,99.99
2018-02-11T00:47:56.223Z,99.99
2018-02-11T00:48:56.328Z,99.99
2018-02-11T00:49:56.050Z,99.99
2018-02-11T00:50:56.070Z,99.99
2018-02-11T00:51:56.129Z,99.99
2018-02-11T00:52:57.078Z,99.99
2018-02-11T00:53:57.294Z,99.99
2018-02-11T00:54:57.006Z,99.99
2018-02-11T00:55:57.416Z,99.99
2018-02-11T00:56:57.840Z,99.99
2018-02-11T00:57:57.600Z,99.99
2018-02-11T00:58:58.675Z,99.99
2018-02-11T00:59:58.424Z,99.99
2018-02-11T01:00:58.196Z,99.99
2018-02-11T01:01:58.769Z,99.99
2018-02-11T01:02:58.476Z,99.99
2018-02-11T01:03:59.081Z,99.99
2018-02-11T01:04:59.008Z,99.99
2018-02-11T01:05:59.026Z,99.99
2018-02-11T01:06:58.774Z,99.99
2018-02-11T01:07:59.556Z,99.99
2018-02-11T01:09:00.096Z,99.99
2018-02-11T01:10:01.066Z,99.99
2018-02-11T01:11:00.611Z,99.99
2018-02-11T01:12:00.908Z,99.99
2018-02-11T01:13:01.191Z,99.99
2018-02-11T01:14:01.307Z,99.99
2018-02-11T01:15:01.734Z,99.99
2018-02-11T01:16:01.738Z,99.99
2018-02-11T01:17:01.786Z,99.99
2018-02-11T01:18:01.685Z,99.99
2018-02-11T01:19:02.615Z,99.99
2018-02-11T01:20:02.484Z,99.99
2018-02-11T01:21:04.008Z,99.99
2018-02-11T01:22:03.696Z,99.99
2018-02-11T01:23:03.554Z,99.99
2018-02-11T01:24:03.333Z,99.99
2018-02-11T01:25:03.385Z,99.99
2018-02-11T01:26:04.016Z,99.99
2018-02-11T01:27:03.394Z,99.99
2018-02-11T01:28:04.493Z,99.99
2018-02-11T01:29:03.704Z,99.99
2018-02-11T01:30:13.031Z,99.99
2018-02-11T01:31:13.196Z,99.99
2018-02-11T01:32:13.370Z,99.99
2018-02-11T01:33:13.390Z,99.99
2018-02-11T01:34:13.413Z,99.99
2018-02-11T01:35:13.545Z,99.99
2018-02-11T01:36:13.823Z,99.99
2018-02-11T01:37:13.800Z,99.99
2018-02-11T01:38:13.665Z,99.99
2018-02-11T01:39:13.950Z,99.99
2018-02-11T01:40:13.971Z,99.99
2018-02-11T01:41:14.083Z,99.99
2018-02-11T01:42:14.508Z,99.99
2018-02-11T01:43:14.815Z,99.99
2018-02-11T01:44:14.574Z,99.99
2018-02-11T01:45:14.703Z,99.99
2018-02-11T01:46:15.140Z,99.99
2018-02-11T01:47:15.314Z,99.99
2018-02-11T01:48:15.035Z,99.99
2018-02-11T01:49:15.434Z,99.99
2018-02-11T01:50:15.474Z,99.99
2018-02-11T01:51:15.775Z,99.99
2018-02-11T01:52:15.794Z,99.99
2018-02-11T01:53:15.833Z,99.99
2018-02-11T01:54:15.565Z,99.99
2018-02-11T01:55:15.996Z,99.99
2018-02-11T01:56:16.202Z,99.99
2018-02-11T01:57:16.342Z,99.99
2018-02-11T01:58:16.485Z,99.99
2018-02-11T01:59:16.548Z,99.99
2018-02-11T02:00:16.685Z,99.99
2018-02-11T02:01:17.131Z,99.99
2018-02-11T02:02:17.100Z,99.99
2018-02-11T02:03:17.344Z,99.99
2018-02-11T02:04:17.360Z,99.99
2018-02-11T02:05:17.109Z,99.99
2018-02-11T02:06:17.520Z,99.99
2018-02-11T02:07:17.518Z,99.99
2018-02-11T02:08:17.267Z,99.99
2018-02-11T02:09:17.661Z,99.99
2018-02-11T02:10:18.067Z,99.99
2018-02-11T02:11:18.211Z,99.99
2018-02-11T02:12:18.258Z,99.99
2018-02-11T02:13:18.652Z,99.99
2018-02-11T02:14:18.705Z,99.99
2018-02-11T02:15:18.703Z,99.99
2018-02-11T02:16:18.799Z,99.99
2018-02-11T02:17:19.427Z,99.99
2018-02-11T02:18:19.184Z,99.99
2018-02-11T02:19:19.472Z,99.99
2018-02-11T02:20:19.493Z,99.99
2018-02-11T02:21:19.247Z,99.99
2018-02-11T02:22:19.507Z,99.99
2018-02-11T02:23:19.657Z,99.99
2018-02-11T02:24:19.826Z,99.99
2018-02-11T02:25:19.936Z,99.99
2018-02-11T02:26:20.352Z,99.99
2018-02-11T02:27:20.503Z,99.99
2018-02-11T02:28:20.324Z,99.99
2018-02-11T02:29:20.653Z,99.99
2018-02-11T02:30:20.738Z,99.99
2018-02-11T02:31:20.802Z,99.99
2018-02-11T02:32:20.966Z,99.99
2018-02-11T02:33:21.275Z,99.99
2018-02-11T02:34:21.280Z,99.99
2018-02-11T02:35:21.023Z,99.99
2018-02-11T02:36:21.651Z,99.99
2018-02-11T02:37:22.040Z,99.99
2018-02-11T02:38:22.326Z,99.99
2018-02-11T02:39:22.391Z,99.99
2018-02-11T02:40:22.412Z,99.99
2018-02-11T02:41:22.440Z,99.99
2018-02-11T02:42:22.148Z,99.99
2018-02-11T02:43:22.317Z,99.99
2018-02-11T02:44:22.669Z,99.99
2018-02-11T02:45:22.426Z,99.99
2018-02-11T02:46:22.716Z,99.99
2018-02-11T02:47:22.741Z,99.99
2018-02-11T02:48:23.216Z,99.99
2018-02-11T02:49:23.267Z,99.99
2018-02-11T02:50:23.324Z,99.99
2018-02-11T02:51:23.303Z,99.99
2018-02-11T02:52:23.323Z,99.99
2018-02-11T02:53:23.312Z,99.99
2018-02-11T02:54:23.075Z,99.99
2018-02-11T02:55:23.533Z,99.99
2018-02-11T02:56:23.852Z,99.99
2018-02-11T02:57:23.830Z,99.99
2018-02-11T02:58:24.043Z,99.99
2018-02-11T02:59:24.534Z,99.99
2018-02-11T03:00:24.308Z,99.99
2018-02-11T03:01:25.470Z,99.99
2018-02-11T03:02:24.814Z,99.99
2018-02-11T03:03:24.851Z,99.99
2018-02-11T03:04:25.192Z,99.99
2018-02-11T03:05:24.916Z,99.99
2018-02-11T03:06:25.237Z,99.99
2018-02-11T03:07:25.653Z,99.99
2018-02-11T03:08:25.624Z,99.99
2018-02-11T03:09:25.625Z,99.99
2018-02-11T03:10:25.686Z,99.99
2018-02-11T03:11:25.573Z,99.99
2018-02-11T03:12:26.126Z,99.99
2018-02-11T03:13:26.175Z,99.99
2018-02-11T03:14:26.364Z,99.99
2018-02-11T03:15:26.124Z,99.99
2018-02-11T03:16:26.240Z,99.99
2018-02-11T03:17:26.793Z,99.99
2018-02-11T03:18:26.670Z,99.99
2018-02-11T03:19:26.669Z,99.99
2018-02-11T03:20:26.706Z,99.99
2018-02-11T03:21:26.845Z,99.99
2018-02-11T03:22:26.775Z,99.99
2018-02-11T03:23:27.318Z,99.99
2018-02-11T03:24:26.700Z,99.99
2018-02-11T03:25:27.010Z,99.99
2018-02-11T03:26:27.196Z,99.99
2018-02-11T03:27:26.877Z,99.99
2018-02-11T03:28:27.559Z,99.99
2018-02-11T03:29:26.913Z,99.99
2018-02-11T03:30:27.001Z,99.99
2018-02-11T03:31:27.425Z,99.99
2018-02-11T03:32:26.969Z,99.99
2018-02-11T03:33:26.925Z,99.99
2018-02-11T03:34:27.211Z,99.99
2018-02-11T03:35:27.244Z,99.99
2018-02-11T03:36:27.225Z,99.99
2018-02-11T03:37:27.338Z,99.99
2018-02-11T03:38:27.108Z,99.99
2018-02-11T03:39:27.912Z,99.99
2018-02-11T03:40:27.874Z,99.99
2018-02-11T03:41:27.462Z,99.99
2018-02-11T03:42:27.185Z,99.99
2018-02-11T03:43:27.505Z,99.99
2018-02-11T03:44:28.261Z,99.99
2018-02-11T03:45:28.436Z,99.99
2018-02-11T03:46:28.437Z,99.99
2018-02-11T03:47:28.895Z,99.99
2018-02-11T03:48:28.467Z,99.99
2018-02-11T03:49:28.468Z,99.99
2018-02-11T03:50:28.644Z,99.99
2018-02-11T03:51:28.274Z,99.99
2018-02-11T03:52:28.259Z,99.99
2018-02-11T03:53:28.625Z,99.99
2018-02-11T03:54:28.674Z,99.99
2018-02-11T03:55:28.988Z,99.99
2018-02-11T03:56:29.010Z,99.99
2018-02-11T03:57:28.684Z,99.99
2018-02-11T03:58:28.998Z,99.99
2018-02-11T03:59:29.017Z,99.99
2018-02-11T04:00:28.876Z,99.99
2018-02-11T04:01:29.062Z,99.99
2018-02-11T04:02:29.292Z,99.99
2018-02-11T04:03:29.272Z,99.99
2018-02-11T04:04:29.179Z,99.99
2018-02-11T04:05:29.724Z,99.99
2018-02-11T04:06:29.682Z,99.99
2018-02-11T04:07:29.918Z,99.99
2018-02-11T04:08:30.077Z,99.99
2018-02-11T04:09:30.629Z,99.99
2018-02-11T04:10:30.570Z,99.99
2018-02-11T04:11:30.593Z,99.99
2018-02-11T04:12:30.487Z,99.99
2018-02-11T04:13:30.774Z,99.99
2018-02-11T04:14:30.541Z,99.99
2018-02-11T04:15:30.556Z,99.99
2018-02-11T04:16:30.943Z,99.99
2018-02-11T04:17:31.317Z,99.99
2018-02-11T04:18:31.420Z,99.99
2018-02-11T04:19:32.198Z,99.99
2018-02-11T04:20:32.475Z,99.99
2018-02-11T04:21:31.844Z,99.99
2018-02-11T04:22:32.258Z,99.99
2018-02-11T04:23:32.067Z,99.99
2018-02-11T04:24:32.359Z,99.99
2018-02-11T04:25:32.749Z,99.99
2018-02-11T04:26:32.516Z,99.99
2018-02-11T04:27:32.776Z,99.99
2018-02-11T04:28:32.888Z,99.99
2018-02-11T04:29:32.629Z,99.99
2018-02-11T04:30:32.977Z,99.99
2018-02-11T04:31:32.990Z,99.99
2018-02-11T04:32:33.727Z,99.99
2018-02-11T04:33:33.127Z,99.99
2018-02-11T04:34:33.125Z,99.99
2018-02-11T04:35:33.142Z,99.99
2018-02-11T04:36:32.850Z,99.99
2018-02-11T04:37:33.882Z,99.99
2018-02-11T04:38:33.587Z,99.99
2018-02-11T04:39:33.384Z,99.99
2018-02-11T04:40:33.299Z,99.99
2018-02-11T04:41:33.349Z,99.99
2018-02-11T04:42:33.369Z,99.99
2018-02-11T04:43:33.374Z,99.99
2018-02-11T04:44:33.359Z,99.99
2018-02-11T04:45:33.993Z,99.99
2018-02-11T04:46:33.664Z,99.99
2018-02-11T04:47:34.187Z,99.99
2018-02-11T04:48:33.837Z,99.99
2018-02-11T04:49:33.480Z,99.99
2018-02-11T04:50:34.632Z,99.99
2018-02-11T04:51:34.256Z,99.99
2018-02-11T04:52:34.153Z,99.99
2018-02-11T04:53:34.544Z,99.99
2018-02-11T04:54:34.650Z,99.99
2018-02-11T04:55:34.403Z,99.99
2018-02-11T04:56:35.019Z,99.99
2018-02-11T04:57:35.086Z,99.99
2018-02-11T04:58:34.308Z,99.99
2018-02-11T04:59:34.355Z,99.99
2018-02-11T05:00:34.515Z,99.99
2018-02-11T05:01:34.430Z,99.99
2018-02-11T05:02:34.798Z,99.99
2018-02-11T05:03:34.526Z,99.99
2018-02-11T05:04:34.427Z,99.99
2018-02-11T05:05:34.775Z,99.99
2018-02-11T05:06:34.837Z,99.99
2018-02-11T05:07:35.218Z,99.99
2018-02-11T05:08:35.588Z,99.99
2018-02-11T05:09:35.643Z,99.99
2018-02-11T05:10:35.829Z,99.99
2018-02-11T05:11:35.534Z,99.99
2018-02-11T05:12:36.026Z,99.99
2018-02-11T05:13:35.810Z,99.99
2018-02-11T05:14:35.992Z,99.99
2018-02-11T05:15:36.467Z,99.99
2018-02-11T05:16:36.231Z,99.99
2018-02-11T05:17:36.284Z,99.99
2018-02-11T05:18:36.412Z,99.99
2018-02-11T05:19:36.471Z,99.99
2018-02-11T05:20:37.031Z,99.99
2018-02-11T05:21:36.946Z,99.99
2018-02-11T05:22:37.669Z,99.99
2018-02-11T05:23:37.037Z,99.99
2018-02-11T05:24:37.127Z,99.99
2018-02-11T05:25:37.584Z,99.99
2018-02-11T05:26:37.350Z,99.99
2018-02-11T05:27:37.647Z,99.99
2018-02-11T05:28:37.780Z,99.99
2018-02-11T05:29:38.055Z,99.99
2018-02-11T05:30:38.745Z,99.99
2018-02-11T05:31:37.718Z,99.99
2018-02-11T05:32:38.026Z,99.99
2018-02-11T05:33:37.882Z,99.99
2018-02-11T05:34:38.256Z,99.99
2018-02-11T05:35:37.978Z,99.99
2018-02-11T05:36:38.274Z,99.99
2018-02-11T05:37:38.504Z,99.99
2018-02-11T05:38:38.572Z,99.99
2018-02-11T05:39:38.525Z,99.99
2018-02-11T05:40:38.538Z,99.99
2018-02-11T05:41:39.155Z,99.99
2018-02-11T05:42:39.259Z,99.99
2018-02-11T05:43:39.214Z,99.99
2018-02-11T05:44:39.393Z,99.99
2018-02-11T05:45:39.653Z,99.99
2018-02-11T05:46:39.843Z,99.99
2018-02-11T05:47:39.746Z,99.99
2018-02-11T05:48:39.935Z,99.99
2018-02-11T05:49:40.214Z,99.99
2018-02-11T05:50:39.939Z,99.99
2018-02-11T05:51:40.259Z,99.99
2018-02-11T05:52:40.035Z,99.99
2018-02-11T05:53:40.279Z,99.99
2018-02-11T05:54:40.771Z,99.99
2018-02-11T05:55:40.983Z,99.99
2018-02-11T05:56:41.410Z,99.99
2018-02-11T05:57:41.269Z,99.99
2018-02-11T05:58:41.483Z,99.99
2018-02-11T05:59:41.225Z,99.99
2018-02-11T06:00:41.249Z,99.99
2018-02-11T06:01:41.621Z,99.99
2018-02-11T06:02:42.363Z,99.99
2018-02-11T06:03:42.364Z,99.99
2018-02-11T06:04:42.613Z,99.99
2018-02-11T06:05:42.629Z,99.99
2018-02-11T06:06:42.884Z,99.99
2018-02-11T06:07:42.885Z,99.99
2018-02-11T06:08:42.656Z,99.99
2018-02-11T06:09:43.071Z,99.99
2018-02-11T06:10:43.520Z,99.99
2018-02-11T06:11:43.277Z,99.99
2018-02-11T06:12:43.561Z,99.99
2018-02-11T06:13:43.688Z,99.99
2018-02-11T06:14:43.805Z,99.99
2018-02-11T06:15:43.466Z,99.99
2018-02-11T06:16:44.108Z,99.99
2018-02-11T06:17:44.477Z,99.99
2018-02-11T06:18:44.523Z,99.99
2018-02-11T06:19:45.113Z,99.99
2018-02-11T06:20:45.083Z,99.99
2018-02-11T06:21:45.441Z,99.99
2018-02-11T06:22:45.177Z,99.99
2018-02-11T06:23:45.796Z,99.99
2018-02-11T06:24:45.517Z,99.99
2018-02-11T06:25:45.513Z,99.99
2018-02-11T06:26:45.694Z,99.99
2018-02-11T06:27:46.100Z,99.99
2018-02-11T06:28:46.143Z,99.99
2018-02-11T06:29:45.876Z,99.99
2018-02-11T06:30:46.525Z,99.99
2018-02-11T06:31:46.254Z,99.99
2018-02-11T06:32:46.550Z,99.99
2018-02-11T06:33:46.585Z,99.99
2018-02-11T06:34:46.687Z,99.99
2018-02-11T06:35:47.365Z,99.99
2018-02-11T06:36:47.870Z,99.99
2018-02-11T06:37:47.433Z,99.99
2018-02-11T06:38:47.518Z,99.99
2018-02-11T06:39:47.554Z,99.99
2018-02-11T06:40:47.560Z,99.99
2018-02-11T06:41:47.963Z,99.99
2018-02-11T06:42:48.477Z,99.99
2018-02-11T06:43:48.471Z,99.99
2018-02-11T06:44:48.323Z,99.99
2018-02-11T06:45:48.964Z,99.99
2018-02-11T06:46:48.620Z,99.99
2018-02-11T06:47:48.422Z,99.99
2018-02-11T06:48:48.679Z,99.99
2018-02-11T06:49:48.685Z,99.99
2018-02-11T06:50:48.814Z,99.99
2018-02-11T06:51:49.136Z,99.99
2018-02-11T06:52:49.130Z,99.99
2018-02-11T06:53:49.298Z,99.99
2018-02-11T06:54:49.320Z,99.99
2018-02-11T06:55:49.685Z,99.99
2018-02-11T06:56:50.077Z,99.99
2018-02-11T06:57:49.780Z,99.99
2018-02-11T06:58:50.207Z,99.99
2018-02-11T06:59:50.631Z,99.99
2018-02-11T07:00:50.799Z,99.99
2018-02-11T07:01:50.969Z,99.99
2018-02-11T07:02:50.826Z,99.99
2018-02-11T07:03:50.512Z,99.99
2018-02-11T07:04:50.780Z,99.99
2018-02-11T07:05:50.806Z,99.99
2018-02-11T07:06:51.184Z,99.99
2018-02-11T07:07:51.581Z,99.99
2018-02-11T07:08:51.357Z,99.99
2018-02-11T07:09:51.634Z,99.99
2018-02-11T07:10:51.648Z,99.99
2018-02-11T07:11:51.442Z,99.99
2018-02-11T07:12:51.778Z,99.99
2018-02-11T07:13:51.947Z,99.99
2018-02-11T07:14:51.772Z,99.99
2018-02-11T07:15:52.176Z,99.99
2018-02-11T07:16:52.350Z,99.99
2018-02-11T07:17:52.632Z,99.99
2018-02-11T07:18:52.779Z,99.99
2018-02-11T07:19:52.450Z,99.99
2018-02-11T07:20:52.710Z,99.99
2018-02-11T07:21:52.443Z,99.99
2018-02-11T07:22:53.050Z,99.99
2018-02-11T07:23:53.245Z,99.99
2018-02-11T07:24:53.269Z,99.99
2018-02-11T07:25:53.578Z,99.99
2018-02-11T07:26:53.566Z,99.99
2018-02-11T07:27:53.595Z,99.99
2018-02-11T07:28:53.383Z,99.99
2018-02-11T07:29:53.682Z,99.99
2018-02-11T07:30:53.765Z,99.99
2018-02-11T07:31:53.970Z,99.99
2018-02-11T07:32:54.120Z,99.99
2018-02-11T07:33:54.183Z,99.99
2018-02-11T07:34:54.294Z,99.99
2018-02-11T07:35:54.175Z,99.99
2018-02-11T07:36:53.945Z,99.99
2018-02-11T07:37:54.389Z,99.99
2018-02-11T07:38:55.290Z,99.99
2018-02-11T07:39:55.051Z,99.99
2018-02-11T07:40:54.899Z,99.99
2018-02-11T07:41:55.172Z,99.99
2018-02-11T07:42:55.838Z,99.99
2018-02-11T07:43:56.009Z,99.99
2018-02-11T07:44:56.446Z,99.99
2018-02-11T07:45:56.695Z,99.99
2018-02-11T07:46:56.729Z,99.99
2018-02-11T07:47:57.145Z,99.99
2018-02-11T07:48:57.166Z,99.99
2018-02-11T07:49:57.266Z,99.99
2018-02-11T07:50:57.285Z,99.99
2018-02-11T07:51:57.314Z,99.99
2018-02-11T07:52:57.465Z,99.99
2018-02-11T07:53:57.214Z,99.99
2018-02-11T07:54:57.519Z,99.99
2018-02-11T07:55:57.283Z,99.99
2018-02-11T07:56:58.194Z,99.99
2018-02-11T07:57:58.005Z,99.99
2018-02-11T07:58:58.241Z,99.99
2018-02-11T07:59:58.070Z,99.99
2018-02-11T08:00:58.081Z,99.99
2018-02-11T08:01:58.308Z,99.99
2018-02-11T08:02:58.754Z,99.99
2018-02-11T08:03:59.157Z,99.99
2018-02-11T08:04:59.609Z,99.99
2018-02-11T08:05:59.642Z,99.99
2018-02-11T08:06:59.656Z,99.99
2018-02-11T08:07:59.887Z,99.99
2018-02-11T08:09:00.257Z,99.99
2018-02-11T08:10:00.260Z,99.99
2018-02-11T08:11:00.159Z,99.99
2018-02-11T08:12:00.795Z,99.99
2018-02-11T08:13:01.284Z,99.99
2018-02-11T08:14:00.921Z,99.99
2018-02-11T08:15:01.068Z,99.99
2018-02-11T08:16:00.933Z,99.99
2018-02-11T08:17:00.948Z,99.99
2018-02-11T08:18:01.019Z,99.99
2018-02-11T08:19:00.959Z,99.99
2018-02-11T08:20:01.211Z,99.99
2018-02-11T08:21:01.196Z,99.99
2018-02-11T08:22:00.918Z,99.99
2018-02-11T08:23:01.314Z,99.99
2018-02-11T08:24:01.337Z,99.99
2018-02-11T08:25:01.335Z,99.99
2018-02-11T08:26:01.500Z,96.64
2018-02-11T08:27:01.278Z,94.32
2018-02-11T08:28:01.873Z,91.61
2018-02-11T08:29:01.753Z,89.81
2018-02-11T08:30:01.753Z,89.53
2018-02-11T08:31:02.054Z,90.24
2018-02-11T08:32:02.090Z,91.8
2018-02-11T08:33:02.116Z,92.85
2018-02-11T08:34:02.137Z,94.6
2018-02-11T08:35:01.882Z,95.65
2018-02-11T08:36:02.469Z,95.79
2018-02-11T08:37:02.133Z,97.02
2018-02-11T08:38:02.206Z,97.4
2018-02-11T08:39:02.459Z,97.97
2018-02-11T08:40:02.507Z,98.35
2018-02-11T08:41:02.484Z,98.72
2018-02-11T08:42:03.247Z,98.63
2018-02-11T08:43:03.245Z,98.91
2018-02-11T08:44:02.825Z,98.82
2018-02-11T08:45:03.259Z,98.54
2018-02-11T08:46:02.986Z,98.44
2018-02-11T08:47:03.344Z,98.63
2018-02-11T08:48:03.409Z,97.87
2018-02-11T08:49:03.489Z,97.11
2018-02-11T08:50:04.151Z,97.68
2018-02-11T08:51:04.593Z,97.59
2018-02-11T08:52:04.490Z,97.21
2018-02-11T08:53:05.257Z,96.69
2018-02-11T08:54:04.999Z,95.74
2018-02-11T08:55:04.865Z,96.03
2018-02-11T08:56:05.118Z,96.12
2018-02-11T08:57:04.807Z,95.69
2018-02-11T08:58:05.128Z,95.98
2018-02-11T08:59:05.109Z,96.36
2018-02-11T09:01:05.209Z,95.88
2018-02-11T09:02:05.362Z,95.98
2018-02-11T09:03:05.709Z,95.88
2018-02-11T09:04:05.822Z,96.22
2018-02-11T09:05:05.741Z,95.74
2018-02-11T09:06:05.903Z,94.6
2018-02-11T09:07:06.525Z,92.94
2018-02-11T09:08:06.378Z,92.23
2018-02-11T09:09:06.533Z,89.81
2018-02-11T09:10:06.649Z,87.34
2018-02-11T09:11:06.576Z,87.01
2018-02-11T09:12:06.440Z,84.48
2018-02-11T09:13:06.972Z,82.87
2018-02-11T09:14:06.882Z,82.68
2018-02-11T09:15:07.165Z,81.1
2018-02-11T09:16:07.146Z,81.44
2018-02-11T09:17:06.909Z,82.45
2018-02-11T09:18:07.190Z,83.01
2018-02-11T09:19:07.465Z,83.78
2018-02-11T09:20:07.603Z,84.87
2018-02-11T09:21:08.336Z,85.44
2018-02-11T09:22:08.051Z,86.44
2018-02-11T09:23:08.798Z,87.39
2018-02-11T09:24:08.984Z,87.2
2018-02-11T09:25:08.777Z,88.29
2018-02-11T09:26:09.063Z,88.77
2018-02-11T09:27:08.811Z,89.91
2018-02-11T09:28:09.481Z,89.53
2018-02-11T09:29:09.484Z,90.19
2018-02-11T09:30:09.799Z,90.57
2018-02-11T09:31:10.320Z,91.09
2018-02-11T09:32:10.247Z,91.28
2018-02-11T09:33:10.552Z,92.42
2018-02-11T09:34:10.834Z,92.04
2018-02-11T09:35:11.209Z,92.23
2018-02-11T09:36:11.113Z,92.71
2018-02-11T09:37:11.145Z,92.71
2018-02-11T09:38:11.614Z,93.27
2018-02-11T09:39:11.700Z,93.56
2018-02-11T09:40:11.673Z,93.56
2018-02-11T09:41:11.854Z,93.56
2018-02-11T09:42:11.623Z,93.84
2018-02-11T09:43:11.981Z,93.84
2018-02-11T09:44:11.651Z,93.56
2018-02-11T09:45:12.325Z,94.23
2018-02-11T09:46:12.348Z,94.23
2018-02-11T09:47:12.462Z,94.04
2018-02-11T09:48:12.223Z,94.13
2018-02-11T09:49:12.582Z,94.27
2018-02-11T09:50:13.039Z,94.13
2018-02-11T09:51:13.007Z,94.23
2018-02-11T09:52:13.117Z,94.32
2018-02-11T09:53:13.353Z,93.75
2018-02-11T09:54:13.522Z,93.56
2018-02-11T09:55:13.773Z,92.99
2018-02-11T09:56:13.918Z,93.08
2018-02-11T09:57:14.317Z,92.23
2018-02-11T09:58:14.354Z,91.24
2018-02-11T09:59:14.554Z,90.24
2018-02-11T10:01:14.967Z,85.68
2018-02-11T10:02:29.874Z,84.53
2018-02-11T10:03:14.617Z,83.2
2018-02-11T10:04:15.267Z,83.11
2018-02-11T10:05:14.969Z,83.49
2018-02-11T10:06:14.961Z,84.16
2018-02-11T10:07:14.884Z,83.92
2018-02-11T10:08:15.423Z,84.21
2018-02-11T10:09:15.598Z,84.68
2018-02-11T10:10:15.562Z,85.44
2018-02-11T10:11:15.935Z,85.44
2018-02-11T10:12:15.805Z,86.01
2018-02-11T10:13:15.937Z,86.25
2018-02-11T10:14:16.377Z,86.07
2018-02-11T10:15:16.416Z,86.82
2018-02-11T10:16:16.552Z,86.72
2018-02-11T10:17:16.483Z,87.3
2018-02-11T10:18:16.432Z,86.91
2018-02-11T10:19:16.763Z,87.54
2018-02-11T10:20:16.846Z,87.63
2018-02-11T10:21:17.227Z,87.73
2018-02-11T10:22:16.920Z,88.48
2018-02-11T10:23:17.313Z,88.29
2018-02-11T10:24:17.451Z,88.39
2018-02-11T10:25:17.786Z,87.92
2018-02-11T10:26:18.003Z,87.77
2018-02-11T10:27:17.973Z,87.39
2018-02-11T10:28:17.995Z,86.82
2018-02-11T10:29:19.550Z,87.39
2018-02-11T10:30:18.810Z,87.11
2018-02-11T10:31:18.945Z,86.87
2018-02-11T10:32:18.813Z,87.58
2018-02-11T10:33:19.165Z,87.45
2018-02-11T10:34:19.060Z,87.82
2018-02-11T10:35:19.586Z,88.77
2018-02-11T10:36:19.629Z,89.06
2018-02-11T10:37:20.008Z,88.43
2018-02-11T10:38:20.355Z,88.15
2018-02-11T10:39:20.815Z,87.96
2018-02-11T10:40:21.252Z,87.49
2018-02-11T10:41:21.570Z,87.96
2018-02-11T10:42:21.484Z,87.35
2018-02-11T10:43:21.961Z,87.73
2018-02-11T10:44:21.958Z,89.06
2018-02-11T10:45:22.002Z,89.25
2018-02-11T10:46:22.119Z,89.72
2018-02-11T10:47:22.526Z,90.76
2018-02-11T10:48:22.914Z,91.57
2018-02-11T10:49:23.291Z,92.9
2018-02-11T10:50:23.372Z,93.84
2018-02-11T10:51:23.327Z,94.6
2018-02-11T10:52:23.112Z,95.17
2018-02-11T10:53:23.415Z,95.74
2018-02-11T10:54:23.563Z,96.12
2018-02-11T10:55:23.561Z,96.59
2018-02-11T10:56:23.770Z,97.26
2018-02-11T10:57:24.189Z,97.35
2018-02-11T10:58:23.945Z,98.49
2018-02-11T10:59:24.556Z,98.87
2018-02-11T11:00:24.544Z,99.15
2018-02-11T11:01:24.587Z,99.99
2018-02-11T11:02:24.809Z,99.99
2018-02-11T11:03:24.961Z,99.99
2018-02-11T11:04:25.511Z,99.99
2018-02-11T11:05:25.464Z,99.99
2018-02-11T11:06:25.825Z,99.99
2018-02-11T11:07:25.772Z,99.99
2018-02-11T11:08:25.797Z,99.68
2018-02-11T11:09:25.849Z,98.82
2018-02-11T11:10:26.061Z,98.73
2018-02-11T11:11:26.239Z,99.01
2018-02-11T11:12:25.891Z,98.25
2018-02-11T11:13:26.461Z,98.07
2018-02-11T11:14:26.734Z,98.35
2018-02-11T11:15:26.505Z,98.54
2018-02-11T11:16:27.187Z,98.16
2018-02-11T11:17:27.241Z,98.25
2018-02-11T11:18:27.461Z,97.69
2018-02-11T11:19:27.218Z,97.12
2018-02-11T11:20:27.569Z,96.83
2018-02-11T11:21:27.700Z,96.26
2018-02-11T11:22:27.922Z,96.17
2018-02-11T11:23:27.910Z,96.36
2018-02-11T11:24:28.078Z,96.36
2018-02-11T11:25:27.798Z,96.45
2018-02-11T11:26:28.372Z,96.36
2018-02-11T11:27:28.510Z,96.26
2018-02-11T11:28:28.790Z,96.08
2018-02-11T11:29:28.941Z,95.79
2018-02-11T11:30:28.844Z,96.17
2018-02-11T11:31:29.076Z,95.5
2018-02-11T11:32:28.984Z,95.31
2018-02-11T11:33:29.350Z,96.17
2018-02-11T11:34:29.373Z,95.79
2018-02-11T11:35:29.483Z,96.08
2018-02-11T11:36:29.832Z,96.08
2018-02-11T11:37:30.312Z,96.36
2018-02-11T11:38:30.408Z,96.64
2018-02-11T11:39:29.999Z,97.12
2018-02-11T11:40:30.285Z,96.17
2018-02-11T11:41:29.810Z,96.22
2018-02-11T11:42:30.273Z,95.84
2018-02-11T11:43:30.510Z,96.22
2018-02-11T11:44:30.669Z,95.93
2018-02-11T11:45:30.651Z,95.93
2018-02-11T11:46:30.613Z,96.03
2018-02-11T11:47:30.429Z,96.78
2018-02-11T11:48:30.403Z,96.78
2018-02-11T11:49:30.379Z,96.59
2018-02-11T11:50:30.778Z,96.5
2018-02-11T11:51:30.574Z,96.59
2018-02-11T11:52:30.932Z,96.69
2018-02-11T11:53:31.078Z,97.07
2018-02-11T11:54:31.431Z,96.88
2018-02-11T11:55:31.178Z,96.88
2018-02-11T11:56:31.430Z,96.97
2018-02-11T11:57:31.415Z,96.88
2018-02-11T11:58:31.956Z,96.88
2018-02-11T11:59:31.650Z,96.69
2018-02-11T12:00:32.299Z,96.59
2018-02-11T12:01:32.091Z,97.26
2018-02-11T12:02:32.130Z,97.64
2018-02-11T12:03:32.383Z,97.54
2018-02-11T12:04:32.021Z,97.73
2018-02-11T12:05:32.737Z,98.02
2018-02-11T12:06:32.867Z,98.21
2018-02-11T12:07:32.740Z,98.02
2018-02-11T12:08:32.779Z,98.02
2018-02-11T12:09:33.196Z,98.87
2018-02-11T12:10:32.781Z,99.99
2018-02-11T12:11:33.225Z,99.99
2018-02-11T12:12:33.658Z,99.99
2018-02-11T12:13:33.771Z,99.99
2018-02-11T12:14:33.402Z,99.99
2018-02-11T12:15:33.908Z,99.99
2018-02-11T12:16:33.535Z,99.99
2018-02-11T12:17:33.473Z,99.99
2018-02-11T12:18:34.163Z,99.99
2018-02-11T12:19:33.909Z,99.99
2018-02-11T12:20:34.213Z,99.99
2018-02-11T12:21:34.426Z,99.99
2018-02-11T12:22:34.823Z,99.99
2018-02-11T12:23:34.843Z,99.99
2018-02-11T12:24:34.711Z,99.99
2018-02-11T12:25:36.408Z,99.99
2018-02-11T12:26:35.625Z,99.99
2018-02-11T12:27:36.163Z,99.99
2018-02-11T12:28:35.851Z,99.99
2018-02-11T12:29:35.612Z,99.99
2018-02-11T12:30:35.938Z,99.99
2018-02-11T12:31:35.663Z,99.99
2018-02-11T12:32:36.029Z,99.99
2018-02-11T12:33:36.398Z,99.99
2018-02-11T12:34:36.403Z,99.99
2018-02-11T12:35:36.095Z,99.99
2018-02-11T12:36:36.402Z,99.99
2018-02-11T12:37:36.870Z,99.99
2018-02-11T12:38:37.089Z,99.99
2018-02-11T12:39:36.982Z,99.99
2018-02-11T12:40:36.984Z,99.99
2018-02-11T12:41:36.760Z,99.99
2018-02-11T12:42:37.046Z,99.99
2018-02-11T12:43:37.085Z,99.99
2018-02-11T12:44:37.140Z,99.99
2018-02-11T12:45:37.187Z,99.99
2018-02-11T12:46:37.198Z,99.99
2018-02-11T12:47:37.874Z,99.99
2018-02-11T12:48:38.251Z,99.99
2018-02-11T12:49:37.908Z,99.99
2018-02-11T12:50:38.210Z,99.99
2018-02-11T12:51:38.279Z,99.99
2018-02-11T12:52:37.961Z,99.99
2018-02-11T12:53:39.166Z,99.99
2018-02-11T12:54:38.713Z,99.99
2018-02-11T12:55:38.778Z,99.99
2018-02-11T12:56:39.278Z,99.99
2018-02-11T12:57:39.978Z,99.99